Time;durP1;ratioP1;P1;durP2;ratioP2;P2;SDS_P1;SDS_P2;PMS_P1;PMS_P2;Temp;Humidity;BMP_temperature;BMP_pressure;BME280_temperature;BME280_humidity;BME280_pressure;Samples;Min_cycle;Max_cycle;Signal;HPM_P1;HPM_P2
2022/09/25 00:02:10;;;;;;;6.00;4.47;;;;;;;-141.28;100.00;49918.06;5074249;28;20285;-75
2022/09/25 00:04:38;;;;;;;7.20;5.13;;;;;;;-141.28;100.00;49898.44;5078472;28;20200;-76
2022/09/25 00:07:07;;;;;;;7.63;4.90;;;;;;;-141.28;100.00;49914.13;5082906;28;20563;-75
2022/09/25 00:09:34;;;;;;;7.70;5.37;;;;;;;-141.28;100.00;49912.16;5073933;28;20282;-75
2022/09/25 00:12:01;;;;;;;9.93;5.40;;;;;;;-141.28;100.00;49921.97;5079639;28;20231;-75
2022/09/25 00:14:28;;;;;;;8.00;4.80;;;;;;;-141.28;100.00;49933.75;5105680;28;20661;-76
2022/09/25 00:16:57;;;;;;;6.90;5.13;;;;;;;-141.28;100.00;49898.44;5086011;28;20654;-75
2022/09/25 00:22:09;;;;;;;10.77;5.10;;;;;;;-141.28;100.00;49953.38;5100713;28;20245;-72
2022/09/25 00:24:36;;;;;;;5.90;4.57;;;;;;;-141.28;100.00;49921.97;5076435;28;20196;-76
2022/09/25 00:27:04;;;;;;;5.43;4.40;;;;;;;-141.28;100.00;49867.03;5081851;28;20598;-75
2022/09/25 00:29:32;;;;;;;5.90;4.43;;;;;;;-141.28;100.00;49894.50;5073353;28;20335;-76
2022/09/25 00:32:01;;;;;;;6.10;4.40;;;;;;;-141.28;100.00;49851.31;5073944;28;20200;-75
2022/09/25 00:34:28;;;;;;;7.33;5.07;;;;;;;-141.28;100.00;49861.13;5073965;28;20196;-75
2022/09/25 00:36:55;;;;;;;6.70;4.33;;;;;;;-141.28;100.00;49845.44;5073363;28;20570;-75
2022/09/25 00:39:24;;;;;;;7.13;4.50;;;;;;;-141.28;100.00;49869.00;5073402;28;20207;-75
2022/09/25 00:41:53;;;;;;;6.20;4.37;;;;;;;-141.28;100.00;49859.19;5073563;28;20208;-73
2022/09/25 00:44:59;;;;;;;6.43;4.73;;;;;;;-141.28;100.00;49935.72;5073294;28;20192;-74
2022/09/25 00:47:48;;;;;;;8.93;4.90;;;;;;;-141.28;100.00;50022.06;5083401;28;20197;-75
2022/09/25 00:50:24;;;;;;;8.43;5.37;;;;;;;-141.28;100.00;50008.34;5086153;28;20203;-75
2022/09/25 00:52:55;;;;;;;7.00;5.17;;;;;;;-141.28;100.00;49957.31;5073045;28;20264;-76
2022/09/25 00:55:23;;;;;;;8.20;5.70;;;;;;;-141.28;100.00;49908.25;5099868;28;20610;-75
2022/09/25 00:57:54;;;;;;;7.37;5.43;;;;;;;-141.28;100.00;49870.94;5084227;28;20257;-73
2022/09/25 01:00:21;;;;;;;7.13;5.10;;;;;;;-141.28;100.00;49855.25;5087097;28;20196;-74
2022/09/25 01:02:53;;;;;;;6.77;5.00;;;;;;;-141.28;100.00;49827.78;5097367;28;20195;-74
2022/09/25 01:05:24;;;;;;;9.37;5.60;;;;;;;-141.28;100.00;49804.22;5111767;28;20198;-76
2022/09/25 01:07:53;;;;;;;10.83;5.07;;;;;;;-141.28;100.00;49796.38;5111700;28;20733;-75
2022/09/25 01:10:20;;;;;;;5.73;4.93;;;;;;;-141.28;100.00;49776.75;5112229;28;20750;-77
2022/09/25 01:12:52;;;;;;;7.37;5.50;;;;;;;-141.28;100.00;49776.75;5082858;28;20648;-75
2022/09/25 01:15:23;;;;;;;9.03;5.00;;;;;;;-141.28;100.00;49757.13;5081443;28;20192;-74
2022/09/25 01:18:01;;;;;;;6.53;5.17;;;;;;;-141.28;100.00;49784.59;5077134;28;20200;-74
2022/09/25 01:21:05;;;;;;;7.37;4.63;;;;;;;-141.28;100.00;49869.00;5072731;28;20381;-75
2022/09/25 01:23:56;;;;;;;7.33;5.40;;;;;;;-141.28;100.00;49855.25;5033764;28;20206;-75
2022/09/25 01:26:44;;;;;;;7.53;5.80;;;;;;;-141.28;100.00;49910.19;5078468;28;20200;-75
2022/09/25 01:29:17;;;;;;;7.47;5.43;;;;;;;-141.28;100.00;49853.28;5105577;28;20638;-76
2022/09/25 01:31:52;;;;;;;8.33;5.47;;;;;;;-141.28;100.00;49847.41;5092236;28;20658;-75
2022/09/25 01:34:26;;;;;;;8.27;5.60;;;;;;;-141.28;100.00;49798.34;5109482;28;20198;-74
2022/09/25 01:36:57;;;;;;;9.97;6.13;;;;;;;-141.28;100.00;49780.69;5098230;28;20629;-74
2022/09/25 01:39:31;;;;;;;12.47;6.00;;;;;;;-141.28;100.00;49753.19;5085544;28;20277;-75
2022/09/25 01:42:03;;;;;;;8.80;6.20;;;;;;;-141.28;100.00;49717.88;5095975;28;20283;-75
2022/09/25 01:44:36;;;;;;;11.27;6.87;;;;;;;-141.28;100.00;49702.19;5111524;28;20199;-74
2022/09/25 01:47:09;;;;;;;8.87;6.60;;;;;;;-141.28;100.00;49719.84;5096428;28;20232;-75
2022/09/25 01:49:40;;;;;;;15.53;7.40;;;;;;;-141.28;100.00;49668.81;5111304;28;20283;-75
2022/09/25 01:52:13;;;;;;;15.67;6.83;;;;;;;-141.28;100.00;49635.47;5105156;28;20216;-74
2022/09/25 01:54:44;;;;;;;14.17;6.90;;;;;;;-141.28;100.00;49600.13;5078380;28;20200;-75
2022/09/25 01:57:19;;;;;;;13.90;8.23;;;;;;;-141.28;100.00;49592.28;5091979;28;20200;-75
2022/09/25 01:59:52;;;;;;;13.27;7.90;;;;;;;-141.28;100.00;49556.97;5082742;28;20211;-74
2022/09/25 02:02:25;;;;;;;15.43;8.43;;;;;;;-141.28;100.00;49541.25;5075386;28;20571;-75
2022/09/25 02:04:56;;;;;;;13.53;8.47;;;;;;;-141.28;100.00;49494.16;5092190;28;20662;-75
2022/09/25 02:07:29;;;;;;;16.20;9.33;;;;;;;-141.28;100.00;49466.69;5080251;28;20196;-76
2022/09/25 02:10:02;;;;;;;15.33;9.43;;;;;;;-141.28;100.00;49458.84;5073676;28;20223;-74
2022/09/25 02:12:34;;;;;;;15.50;9.33;;;;;;;-141.28;100.00;49456.88;5072320;28;20446;-75
2022/09/25 02:15:09;;;;;;;16.73;9.97;;;;;;;-141.28;100.00;49396.06;5073338;28;20611;-75
2022/09/25 02:20:33;;;;;;;16.83;9.40;;;;;;;-141.28;100.00;49401.94;5082230;28;20491;-74
2022/09/25 02:23:08;;;;;;;21.63;10.43;;;;;;;-141.28;100.00;49374.47;5109829;28;20431;-75
2022/09/25 02:25:41;;;;;;;16.80;10.40;;;;;;;-141.28;100.00;49358.78;5111776;28;20251;-74
2022/09/25 02:28:08;;;;;;;21.80;10.90;;;;;;;-141.28;100.00;49311.69;5079148;28;20450;-73
2022/09/25 02:30:37;;;;;;;17.73;10.40;;;;;;;-141.28;100.00;49290.09;5098103;28;20238;-76
2022/09/25 02:33:04;;;;;;;15.37;10.00;;;;;;;-141.28;100.00;49264.59;5112272;28;20215;-75
2022/09/25 02:35:32;;;;;;;14.47;9.77;;;;;;;-141.28;100.00;49278.31;5097347;28;20502;-75
2022/09/25 02:37:59;;;;;;;18.30;11.00;;;;;;;-141.28;100.00;49239.09;5102009;28;20195;-74
2022/09/25 02:40:34;;;;;;;20.03;11.10;;;;;;;-141.28;100.00;49213.56;5093042;28;20441;-75
2022/09/25 02:43:12;;;;;;;17.43;10.90;;;;;;;-141.28;100.00;49243.00;5091316;28;20191;-75
2022/09/25 02:45:49;;;;;;;23.50;11.60;;;;;;;-141.28;100.00;49235.16;5076706;28;20449;-73
2022/09/25 02:48:23;;;;;;;20.63;11.13;;;;;;;-141.28;100.00;49229.28;5091848;28;20195;-76
2022/09/25 02:50:57;;;;;;;18.70;10.57;;;;;;;-141.28;100.00;49231.22;5083019;28;20551;-75
2022/09/25 02:53:33;;;;;;;16.17;10.57;;;;;;;-141.28;100.00;49221.41;5085707;28;20434;-76
2022/09/25 02:56:05;;;;;;;20.37;10.87;;;;;;;-141.28;100.00;49199.84;5076621;28;20450;-73
2022/09/25 02:58:36;;;;;;;20.17;10.97;;;;;;;-141.28;100.00;49164.53;5079437;28;20451;-74
2022/09/25 03:01:08;;;;;;;21.53;11.20;;;;;;;-141.28;100.00;49158.63;5073344;28;20457;-74
2022/09/25 03:03:37;;;;;;;18.53;12.53;;;;;;;-141.28;100.00;49144.91;5076700;28;20494;-75
2022/09/25 03:06:06;;;;;;;23.97;12.40;;;;;;;-141.28;100.00;49133.13;5091433;28;20434;-74
2022/09/25 03:08:40;;;;;;;21.00;11.67;;;;;;;-141.28;100.00;49117.44;5077697;28;20286;-76
2022/09/25 03:11:09;;;;;;;21.93;14.10;;;;;;;-141.28;100.00;49097.81;5078116;28;20631;-76
2022/09/25 03:13:36;;;;;;;17.90;12.13;;;;;;;-141.28;100.00;49086.03;5071527;28;20443;-75
2022/09/25 03:16:08;;;;;;;22.03;11.70;;;;;;;-141.28;100.00;49078.19;5072582;28;20438;-74
2022/09/25 03:18:36;;;;;;;19.47;12.47;;;;;;;-141.28;100.00;49089.97;5065004;28;20878;-75
2022/09/25 03:21:05;;;;;;;24.17;11.93;;;;;;;-141.28;100.00;49101.72;5076644;28;20540;-75
2022/09/25 03:23:33;;;;;;;21.70;11.70;;;;;;;-141.28;100.00;49093.88;5094928;28;20214;-74
2022/09/25 03:26:00;;;;;;;16.40;10.17;;;;;;;-141.28;100.00;49086.03;5078240;28;20929;-74
2022/09/25 03:28:28;;;;;;;19.37;9.80;;;;;;;-141.28;100.00;49117.44;5085174;28;20953;-74
2022/09/25 03:30:57;;;;;;;13.17;10.10;;;;;;;-141.28;100.00;49109.59;5077343;28;21000;-74
2022/09/25 03:33:28;;;;;;;15.53;9.97;;;;;;;-141.28;100.00;49125.28;5074780;28;20450;-75
2022/09/25 03:36:08;;;;;;;15.90;9.67;;;;;;;-141.28;100.00;49137.06;5074239;28;20200;-75
2022/09/25 03:38:35;;;;;;;15.47;9.87;;;;;;;-141.28;100.00;49129.19;5093645;28;20521;-77
2022/09/25 03:41:03;;;;;;;11.63;8.90;;;;;;;-141.28;100.00;49133.13;5093828;28;20441;-74
2022/09/25 03:43:32;;;;;;;17.17;9.87;;;;;;;-141.28;100.00;49162.56;5106880;28;20445;-74
2022/09/25 03:45:59;;;;;;;15.80;9.40;;;;;;;-141.28;100.00;49148.81;5101750;28;20445;-76
2022/09/25 03:48:27;;;;;;;18.83;10.13;;;;;;;-141.28;100.00;49172.38;5113875;28;20463;-74
2022/09/25 03:50:55;;;;;;;14.07;9.37;;;;;;;-141.28;100.00;49184.13;5106011;28;20557;-76
2022/09/25 03:53:24;;;;;;;17.90;9.43;;;;;;;-141.28;100.00;49158.63;5096260;28;20445;-75
2022/09/25 03:55:50;;;;;;;16.00;10.27;;;;;;;-141.28;100.00;49178.25;5114651;28;20456;-76
2022/09/25 03:58:20;;;;;;;16.63;9.83;;;;;;;-141.28;100.00;49170.41;5097516;28;20507;-75
2022/09/25 04:00:49;;;;;;;19.13;10.63;;;;;;;-141.28;100.00;49199.84;5103484;28;20505;-76
2022/09/25 04:03:16;;;;;;;18.50;10.60;;;;;;;-141.28;100.00;49188.06;5113028;28;20515;-74
2022/09/25 04:05:46;;;;;;;20.77;10.33;;;;;;;-141.28;100.00;49168.44;5113812;28;20440;-73
2022/09/25 04:08:13;;;;;;;16.70;10.60;;;;;;;-141.28;100.00;49184.13;5113597;28;20494;-75
2022/09/25 04:10:40;;;;;;;15.67;10.80;;;;;;;-141.28;100.00;49182.19;5103215;28;20535;-76
2022/09/25 04:13:11;;;;;;;21.20;11.07;;;;;;;-141.28;100.00;49186.09;5106839;28;20490;-76
2022/09/25 04:15:39;;;;;;;20.73;11.93;;;;;;;-141.28;100.00;49188.06;5104475;28;20449;-75
2022/09/25 04:18:08;;;;;;;19.70;11.53;;;;;;;-141.28;100.00;49199.84;5104952;28;20466;-76
2022/09/25 04:20:37;;;;;;;16.30;10.80;;;;;;;-141.28;100.00;49197.88;5085978;28;20445;-75
2022/09/25 04:23:06;;;;;;;18.50;11.83;;;;;;;-141.28;100.00;49203.75;5112385;28;20882;-76
2022/09/25 04:25:32;;;;;;;19.27;11.33;;;;;;;-141.28;100.00;49209.66;5087779;28;20449;-75
2022/09/25 04:28:01;;;;;;;17.63;11.60;;;;;;;-141.28;100.00;49231.22;5106000;28;20433;-73
2022/09/25 04:30:29;;;;;;;17.70;10.97;;;;;;;-141.28;100.00;49223.38;5080217;28;20482;-74
2022/09/25 04:35:43;;;;;;;29.17;12.87;;;;;;;-141.28;100.00;49256.75;5073628;28;20203;-74
2022/09/25 04:38:11;;;;;;;17.67;10.30;;;;;;;-141.28;100.00;49262.63;5088318;28;20498;-73
2022/09/25 04:40:39;;;;;;;15.37;11.00;;;;;;;-141.28;100.00;49262.63;5096284;28;20821;-74
2022/09/25 04:43:07;;;;;;;15.57;10.43;;;;;;;-141.28;100.00;49246.94;5093860;28;20819;-76
2022/09/25 04:45:36;;;;;;;16.53;10.07;;;;;;;-141.28;100.00;49258.69;5089589;28;20441;-75
2022/09/25 04:48:04;;;;;;;13.73;10.20;;;;;;;-141.28;100.00;49274.41;5073774;28;20525;-74
2022/09/25 04:50:34;;;;;;;15.50;10.43;;;;;;;-141.28;100.00;49280.28;5073652;28;20493;-78
2022/09/25 04:53:02;;;;;;;15.40;9.83;;;;;;;-141.28;100.00;49274.41;5073765;28;20947;-75
2022/09/25 04:55:32;;;;;;;16.20;9.67;;;;;;;-141.28;100.00;49313.66;5074432;28;20450;-75
2022/09/25 04:58:01;;;;;;;14.97;9.50;;;;;;;-141.28;100.00;49311.69;5086731;28;20453;-75
2022/09/25 05:00:30;;;;;;;18.10;10.87;;;;;;;-141.28;100.00;49313.66;5081158;28;20498;-74
2022/09/25 05:02:58;;;;;;;14.37;9.23;;;;;;;-141.28;100.00;49341.13;5081059;28;20541;-75
2022/09/25 05:05:29;;;;;;;23.90;11.13;;;;;;;-141.28;100.00;49347.00;5074293;28;20442;-76
2022/09/25 05:07:58;;;;;;;22.40;10.73;;;;;;;-141.28;100.00;49360.75;5073640;28;20446;-75
2022/09/25 05:10:28;;;;;;;34.33;10.97;;;;;;;-141.28;100.00;49378.41;5073197;28;20497;-75
2022/09/25 05:12:57;;;;;;;20.03;10.90;;;;;;;-141.28;100.00;49388.22;5087200;28;20537;-75
2022/09/25 05:15:25;;;;;;;19.30;9.53;;;;;;;-141.28;100.00;49415.69;5073079;28;20518;-75
2022/09/25 05:17:59;;;;;;;14.47;9.53;;;;;;;-141.28;100.00;49449.03;5089146;28;20270;-74
2022/09/25 05:20:27;;;;;;;13.03;8.30;;;;;;;-141.28;100.00;49451.00;5082931;28;20641;-75
2022/09/25 05:22:57;;;;;;;18.33;9.00;;;;;;;-141.28;100.00;49478.47;5096000;28;20441;-75
2022/09/25 05:25:26;;;;;;;20.73;9.03;;;;;;;-141.28;100.00;49498.09;5112394;28;20191;-76
2022/09/25 05:27:54;;;;;;;12.83;9.20;;;;;;;-141.28;100.00;49509.88;5111772;28;20195;-76
2022/09/25 05:30:23;;;;;;;18.80;9.50;;;;;;;-141.28;100.00;49566.78;5112276;28;20222;-76
2022/09/25 05:32:50;;;;;;;14.03;9.20;;;;;;;-141.28;100.00;49576.59;5111615;28;20195;-77
2022/09/25 05:35:18;;;;;;;21.90;10.37;;;;;;;-141.28;100.00;49596.22;5111837;28;20256;-76
2022/09/25 05:37:45;;;;;;;22.30;10.77;;;;;;;-141.28;100.00;49641.34;5112033;28;20280;-74
2022/09/25 05:40:14;;;;;;;18.33;10.93;;;;;;;-141.28;100.00;49662.94;5098382;28;20203;-74
2022/09/25 05:42:42;;;;;;;24.33;10.80;;;;;;;-141.28;100.00;49733.56;5078434;28;20219;-76
2022/09/25 05:45:10;;;;;;;18.73;10.57;;;;;;;-141.28;100.00;49837.59;5105560;28;20195;-74
2022/09/25 05:47:39;;;;;;;19.70;10.83;;;;;;;-141.28;100.00;49872.91;5096332;28;20203;-73
2022/09/25 05:50:08;;;;;;;17.10;11.00;;;;;;;-141.28;100.00;49878.81;5071812;28;20337;-76
2022/09/25 05:52:35;;;;;;;19.13;12.53;;;;;;;-141.28;100.00;49933.75;5081321;28;20253;-74
2022/09/25 05:55:04;;;;;;;20.17;11.70;;;;;;;-141.28;100.00;49945.53;5076238;28;20273;-76
2022/09/25 05:57:32;;;;;;;17.77;10.67;;;;;;;-141.28;100.00;50020.09;5081015;28;20650;-76
2022/09/25 06:00:00;;;;;;;16.57;10.30;;;;;;;-141.28;100.00;50094.69;5091380;28;20207;-74
2022/09/25 06:02:28;;;;;;;19.60;11.33;;;;;;;-141.28;100.00;50216.38;5091532;28;20654;-75
2022/09/25 06:04:58;;;;;;;18.10;11.33;;;;;;;-141.28;100.00;50287.03;5104787;28;20192;-76
2022/09/25 06:07:26;;;;;;;20.57;11.20;;;;;;;-141.28;100.00;50357.69;5101821;28;20681;-76
2022/09/25 06:09:53;;;;;;;18.23;11.03;;;;;;;-141.28;100.00;50491.16;5093026;28;20223;-74
2022/09/25 06:12:23;;;;;;;32.87;10.40;;;;;;;-141.28;100.00;50583.41;5102318;28;20655;-77
2022/09/25 06:14:51;;;;;;;17.17;9.90;;;;;;;-141.28;100.00;50711.00;5105543;28;20236;-74
2022/09/25 06:17:19;;;;;;;15.67;10.27;;;;;;;-141.28;100.00;50722.78;5103355;28;20202;-75
2022/09/25 06:19:48;;;;;;;17.60;10.27;;;;;;;-141.28;100.00;50830.75;5074446;28;20678;-73
2022/09/25 06:22:16;;;;;;;16.07;11.07;;;;;;;-141.28;100.00;50862.16;5084948;28;20196;-76
2022/09/25 06:24:44;;;;;;;18.87;12.43;;;;;;;-141.28;100.00;50950.50;5111252;28;20199;-75
2022/09/25 06:27:11;;;;;;;22.97;12.70;;;;;;;-141.28;100.00;50979.97;5099674;28;20195;-76
2022/09/25 06:29:39;;;;;;;21.03;12.93;;;;;;;-141.28;100.00;51013.31;5097707;28;20195;-75
2022/09/25 06:32:05;;;;;;;17.93;12.73;;;;;;;-141.28;100.00;50903.41;5111555;28;20202;-75
2022/09/25 06:34:32;;;;;;;22.67;12.87;;;;;;;-141.28;100.00;50946.59;5084488;28;20203;-75
2022/09/25 06:37:00;;;;;;;19.33;11.70;;;;;;;-141.28;100.00;50781.69;5096546;28;20727;-76
2022/09/25 06:39:32;;;;;;;21.97;11.33;;;;;;;-141.28;100.00;50724.75;5096691;28;20192;-74
2022/09/25 06:41:59;;;;;;;21.87;11.33;;;;;;;-141.28;100.00;50683.53;5071212;28;20208;-76
2022/09/25 06:44:27;;;;;;;15.90;10.90;;;;;;;-141.28;100.00;50644.28;5071510;28;20223;-76
2022/09/25 06:46:54;;;;;;;16.73;10.63;;;;;;;-141.28;100.00;50518.66;5076228;28;20200;-76
2022/09/25 06:49:22;;;;;;;16.80;9.60;;;;;;;-141.28;100.00;50371.44;5074769;28;20193;-76
2022/09/25 06:51:49;;;;;;;12.70;8.90;;;;;;;-141.28;100.00;50338.06;5085919;28;20302;-75
2022/09/25 06:54:17;;;;;;;18.00;10.13;;;;;;;-141.28;100.00;50263.47;5081420;28;20191;-75
2022/09/25 06:56:50;;;;;;;11.20;8.40;;;;;;;-141.28;100.00;50204.59;5079277;28;20291;-76
2022/09/25 06:59:17;;;;;;;11.67;8.67;;;;;;;-141.28;100.00;50192.81;5075925;28;20196;-75
2022/09/25 07:01:44;;;;;;;15.87;7.90;;;;;;;-141.28;100.00;50212.44;5087934;28;20192;-76
2022/09/25 07:04:10;;;;;;;9.70;6.30;;;;;;;-141.28;100.00;50644.28;5086279;28;20236;-75
2022/09/25 07:06:37;;;;;;;12.40;7.43;;;;;;;-141.28;100.00;50612.88;5072424;28;20200;-75
2022/09/25 07:09:04;;;;;;;12.67;8.27;;;;;;;-141.28;100.00;50585.38;5085757;28;20272;-75
2022/09/25 07:11:31;;;;;;;13.23;8.27;;;;;;;-141.28;100.00;50610.91;5107850;28;20705;-73
2022/09/25 07:14:05;;;;;;;15.97;7.70;;;;;;;-141.28;100.00;50561.81;5106216;28;21007;-75
2022/09/25 07:16:33;;;;;;;10.37;7.13;;;;;;;-141.28;100.00;50553.97;5102645;28;20628;-75
2022/09/25 07:19:03;;;;;;;11.13;7.03;;;;;;;-141.28;100.00;50508.81;5076829;28;20218;-75
2022/09/25 07:21:31;;;;;;;9.37;6.50;;;;;;;-141.28;100.00;50451.91;5113412;28;20206;-75
2022/09/25 07:23:58;;;;;;;13.20;6.87;;;;;;;-141.28;100.00;50251.69;5114888;28;20198;-78
2022/09/25 07:26:27;;;;;;;13.43;6.63;;;;;;;-141.28;100.00;50131.97;5094577;28;20283;-76
2022/09/25 07:28:56;;;;;;;8.60;6.47;;;;;;;-141.28;100.00;50108.44;5094436;28;20200;-76
2022/09/25 07:31:27;;;;;;;14.17;6.57;;;;;;;-141.28;100.00;50020.09;5084029;28;20708;-75
2022/09/25 07:33:55;;;;;;;12.50;7.57;;;;;;;-141.28;100.00;49925.91;5111704;28;20207;-75
2022/09/25 07:36:22;;;;;;;9.57;7.17;;;;;;;-141.28;100.00;50024.03;5065405;28;20191;-74
2022/09/25 07:38:50;;;;;;;12.07;7.90;;;;;;;-141.28;100.00;49710.03;5081837;28;20241;-77
2022/09/25 07:41:18;;;;;;;11.17;7.53;;;;;;;-141.28;100.00;49678.63;5104378;28;20203;-74
2022/09/25 07:43:45;;;;;;;12.57;7.33;;;;;;;-141.28;100.00;49674.72;5097734;28;20306;-74
2022/09/25 07:46:13;;;;;;;13.70;7.60;;;;;;;-141.28;100.00;49553.03;5094395;28;20199;-74
2022/09/25 07:48:41;;;;;;;14.90;7.77;;;;;;;-141.28;100.00;49529.50;5105286;28;20676;-76
2022/09/25 07:51:11;;;;;;;14.73;7.10;;;;;;;-141.28;100.00;49470.63;5081861;28;20227;-77
2022/09/25 07:53:39;;;;;;;10.10;7.77;;;;;;;-141.28;100.00;49456.88;5094118;28;20717;-74
2022/09/25 07:56:16;;;;;;;9.93;6.80;;;;;;;-141.28;100.00;49439.22;5080773;28;20219;-76
2022/09/25 07:58:44;;;;;;;11.97;6.60;;;;;;;-141.28;100.00;49447.06;5093456;28;20199;-75
2022/09/25 08:01:13;;;;;;;17.40;6.80;;;;;;;-141.28;100.00;49449.03;5081080;28;20206;-76
2022/09/25 08:03:41;;;;;;;11.47;6.40;;;;;;;-141.28;100.00;49345.03;5107289;28;20673;-75
2022/09/25 08:06:10;;;;;;;8.93;5.97;;;;;;;-141.28;100.00;49317.56;5112846;28;20647;-76
2022/09/25 08:08:39;;;;;;;9.37;6.17;;;;;;;-141.28;100.00;49290.09;5113355;28;20725;-75
2022/09/25 08:11:08;;;;;;;13.30;5.83;;;;;;;-141.28;100.00;49286.16;5113278;28;20650;-76
2022/09/25 08:13:37;;;;;;;12.83;5.60;;;;;;;-141.28;100.00;49258.69;5098787;28;20285;-75
2022/09/25 08:16:05;;;;;;;9.23;5.13;;;;;;;-141.28;100.00;49266.56;5113578;28;20210;-76
2022/09/25 08:18:32;;;;;;;10.10;5.33;;;;;;;-141.28;100.00;49243.00;5097497;28;20200;-74
2022/09/25 08:21:05;;;;;;;8.67;5.63;;;;;;;-141.28;100.00;49235.16;5088784;28;20206;-74
2022/09/25 08:23:33;;;;;;;11.03;5.13;;;;;;;-141.28;100.00;49180.22;5093486;28;20274;-75
2022/09/25 08:26:01;;;;;;;10.90;5.90;;;;;;;-141.28;100.00;49262.63;5079127;28;20208;-76
2022/09/25 08:28:29;;;;;;;9.10;5.63;;;;;;;-141.28;100.00;49225.34;5093613;28;20203;-74
2022/09/25 08:31:00;;;;;;;11.40;5.97;;;;;;;-141.28;100.00;49223.38;5076171;28;20235;-76
2022/09/25 08:33:27;;;;;;;12.30;5.37;;;;;;;-141.28;100.00;49188.06;5085251;28;20191;-76
2022/09/25 08:35:56;;;;;;;7.17;5.50;;;;;;;-141.28;100.00;49227.31;5088755;28;20200;-75
2022/09/25 08:38:25;;;;;;;6.53;5.00;;;;;;;-141.28;100.00;49213.56;5085450;28;20227;-75
2022/09/25 08:40:56;;;;;;;10.27;5.70;;;;;;;-141.28;100.00;49207.69;5076533;28;20200;-74
2022/09/25 08:43:26;;;;;;;7.97;5.43;;;;;;;-141.28;100.00;49227.31;5074068;28;20261;-75
2022/09/25 08:49:02;;;;;;;8.27;5.23;;;;;;;-141.28;100.00;49209.66;5077821;28;20201;-74
2022/09/25 08:51:32;;;;;;;10.03;4.97;;;;;;;-141.28;100.00;49188.06;5094063;28;20231;-75
2022/09/25 08:54:01;;;;;;;11.30;5.53;;;;;;;-141.28;100.00;49180.22;5076699;28;20257;-74
2022/09/25 08:56:29;;;;;;;8.40;5.10;;;;;;;-141.28;100.00;49201.81;5090525;28;20257;-76
2022/09/25 08:59:03;;;;;;;10.23;5.37;;;;;;;-141.28;100.00;49227.31;5074048;28;20587;-77
2022/09/25 09:01:42;;;;;;;8.13;5.40;;;;;;;-141.28;100.00;49213.56;5056537;28;20202;-76
2022/09/25 09:04:19;;;;;;;5.90;4.80;;;;;;;-141.28;100.00;49223.38;5084625;28;20646;-77
2022/09/25 09:06:51;;;;;;;8.80;4.93;;;;;;;-141.28;100.00;49207.69;5090816;28;20284;-75
2022/09/25 09:09:27;;;;;;;8.10;4.63;;;;;;;-141.28;100.00;49211.59;5074348;28;20728;-73
2022/09/25 09:11:59;;;;;;;6.43;4.03;;;;;;;-141.28;97.15;49184.13;5087642;28;20235;-76
2022/09/25 09:14:31;;;;;;;4.47;3.50;;;;;;;-141.28;81.55;49168.44;5087192;28;20203;-75
2022/09/25 09:17:00;;;;;;;5.60;3.70;;;;;;;-141.28;75.33;49038.94;5082437;28;20716;-77
2022/09/25 09:19:28;;;;;;;4.83;3.00;;;;;;;-141.28;70.46;49125.28;5080534;28;20221;-74
2022/09/25 09:22:04;;;;;;;6.33;3.10;;;;;;;-141.28;68.69;49133.13;5092241;28;20198;-76
2022/09/25 09:24:48;;;;;;;4.53;3.03;;;;;;;-141.28;67.35;49142.94;5087589;28;20195;-75
2022/09/25 09:27:29;;;;;;;3.70;3.20;;;;;;;-141.28;67.97;49125.28;5072537;28;20196;-75
2022/09/25 09:30:09;;;;;;;5.00;3.73;;;;;;;-141.28;71.47;49148.81;5081499;28;20658;-76
2022/09/25 09:32:55;;;;;;;5.17;3.47;;;;;;;-141.28;67.82;49107.63;5079376;28;20215;-74
2022/09/25 09:35:32;;;;;;;5.43;3.27;;;;;;;-141.28;69.19;49127.25;5080106;28;20200;-75
2022/09/25 09:38:09;;;;;;;4.70;3.17;;;;;;;-141.28;69.13;49146.84;5072589;28;20196;-77
2022/09/25 09:40:53;;;;;;;4.03;3.60;;;;;;;-141.28;69.40;49180.22;5076056;28;20248;-75
2022/09/25 09:43:32;;;;;;;3.73;3.27;;;;;;;-141.28;75.49;49176.28;5092171;28;20199;-76
2022/09/25 09:46:12;;;;;;;7.17;3.87;;;;;;;-141.28;76.60;49164.53;5072215;28;20291;-75
2022/09/25 09:48:49;;;;;;;4.87;3.43;;;;;;;-141.28;76.85;49160.59;5072462;28;20672;-76
2022/09/25 09:51:21;;;;;;;6.57;3.83;;;;;;;-141.28;71.93;49264.59;5072324;28;20223;-76
2022/09/25 09:53:51;;;;;;;5.13;4.00;;;;;;;-141.28;71.42;49117.44;5090881;28;20199;-75
2022/09/25 09:56:25;;;;;;;4.00;3.60;;;;;;;-141.28;69.74;49129.19;5091494;28;20271;-75
2022/09/25 09:58:57;;;;;;;7.07;4.30;;;;;;;-141.28;68.01;49129.19;5091655;28;20200;-75
2022/09/25 10:01:26;;;;;;;7.47;4.17;;;;;;;-141.28;67.88;49144.91;5083684;28;20724;-76
2022/09/25 10:04:04;;;;;;;7.03;4.20;;;;;;;-141.28;70.43;49129.19;5071499;28;20193;-75
2022/09/25 10:06:35;;;;;;;9.17;4.40;;;;;;;-141.28;68.31;49050.72;5071677;28;20714;-75
2022/09/25 10:09:02;;;;;;;7.13;4.20;;;;;;;-141.28;70.22;49144.91;5073209;28;20192;-75
2022/09/25 10:11:32;;;;;;;6.73;4.27;;;;;;;-141.28;75.76;49137.06;5071965;28;20259;-75
2022/09/25 10:14:04;;;;;;;8.87;4.83;;;;;;;-141.28;74.44;49137.06;5078824;28;20282;-75
2022/09/25 10:16:31;;;;;;;9.80;4.43;;;;;;;-141.28;70.53;49109.59;5091813;28;20196;-76
2022/09/25 10:19:04;;;;;;;5.70;3.93;;;;;;;-141.28;67.47;49048.75;5072971;28;20262;-77
2022/09/25 10:21:33;;;;;;;6.30;3.90;;;;;;;-141.28;67.09;49050.72;5071510;28;20255;-77
2022/09/25 10:24:02;;;;;;;10.00;3.40;;;;;;;-141.28;65.05;49097.81;5071097;28;20193;-76
2022/09/25 10:26:34;;;;;;;8.30;3.80;;;;;;;-141.28;66.19;49089.97;5071062;28;20199;-75
2022/09/25 10:29:03;;;;;;;5.70;3.87;;;;;;;-141.28;62.96;49074.25;5072503;28;20722;-74
2022/09/25 10:31:32;;;;;;;6.50;3.57;;;;;;;-141.28;59.27;49074.25;5088437;28;20231;-77
2022/09/25 10:34:05;;;;;;;5.17;3.53;;;;;;;-141.28;59.26;49050.72;5100992;28;20219;-74
2022/09/25 10:36:37;;;;;;;9.10;3.80;;;;;;;-141.28;61.68;49027.19;5090513;28;20306;-76
2022/09/25 10:39:06;;;;;;;6.17;3.60;;;;;;;-141.28;58.69;48984.00;5083571;28;20233;-76
2022/09/25 10:41:43;;;;;;;5.13;3.40;;;;;;;-141.28;57.25;49121.34;5090893;28;20204;-77
2022/09/25 10:44:22;;;;;;;5.07;3.47;;;;;;;-141.28;56.87;48976.16;5084853;28;20191;-75
2022/09/25 10:52:46;;;;;;;12.37;4.17;;;;;;;-141.28;50.72;48905.53;5086714;28;20236;-77
2022/09/25 10:55:20;;;;;;;4.60;3.80;;;;;;;-141.28;51.98;48972.25;5091704;28;20581;-76
2022/09/25 10:57:57;;;;;;;5.07;3.80;;;;;;;-141.28;56.95;48991.84;5099778;28;20260;-75
2022/09/25 11:00:26;;;;;;;6.17;3.50;;;;;;;-141.28;52.91;48976.16;5118060;28;20226;-76
2022/09/25 11:02:57;;;;;;;4.03;3.43;;;;;;;-141.28;55.58;49015.41;5118676;28;20219;-77
2022/09/25 11:05:28;;;;;;;7.20;3.80;;;;;;;-141.28;51.63;48938.88;5099919;28;20195;-75
2022/09/25 11:08:00;;;;;;;6.67;3.73;;;;;;;-141.28;50.06;48862.38;5109237;28;20195;-75
2022/09/25 11:10:29;;;;;;;3.47;3.07;;;;;;;-141.28;48.62;48905.53;5116791;28;20230;-74
2022/09/25 11:12:58;;;;;;;4.53;2.90;;;;;;;-141.28;47.81;48878.06;5117552;28;20283;-75
2022/09/25 11:15:27;;;;;;;4.43;3.13;;;;;;;-141.28;48.01;48874.13;5097005;28;20195;-74
2022/09/25 11:17:55;;;;;;;4.70;3.30;;;;;;;-141.28;46.79;48838.81;5105021;28;20187;-77
2022/09/25 11:20:28;;;;;;;3.60;3.20;;;;;;;-141.28;46.65;48878.06;5098909;28;20221;-76
2022/09/25 11:23:18;;;;;;;3.87;3.43;;;;;;;-141.28;46.64;48874.13;5117438;28;20209;-76
2022/09/25 11:25:52;;;;;;;5.10;3.50;;;;;;;-141.28;47.85;48901.59;5100766;28;20306;-75
2022/09/25 11:28:30;;;;;;;5.00;3.23;;;;;;;-141.28;46.50;48889.84;5087160;28;20196;-76
2022/09/25 11:31:02;;;;;;;3.93;3.27;;;;;;;-141.28;46.72;48874.13;5082753;28;20192;-75
2022/09/25 11:33:41;;;;;;;5.73;3.27;;;;;;;-141.28;46.06;48874.13;5091030;28;20327;-74
2022/09/25 11:36:15;;;;;;;4.97;2.90;;;;;;;-141.28;45.16;48864.34;5077514;28;20282;-78
2022/09/25 11:41:37;;;;;;;3.73;3.10;;;;;;;-141.28;43.90;48834.91;5084223;28;20368;-75